createdAt,value
2017-04-12T09:48:19.284Z,110
2017-04-12T09:48:49.836Z,105
2017-04-12T09:49:49.798Z,105
2017-04-12T09:50:49.538Z,100
2017-04-12T09:51:50.124Z,95
2017-04-12T09:52:49.821Z,90
2017-04-12T09:53:49.869Z,90
2017-04-12T09:54:49.828Z,90
2017-04-12T09:55:50.693Z,85
2017-04-12T09:56:49.894Z,85
2017-04-12T09:57:49.590Z,85
2017-04-12T09:58:50.170Z,80
2017-04-12T09:59:50.284Z,80
2017-04-12T10:00:50.189Z,80
2017-04-12T10:01:49.982Z,80
2017-04-12T10:02:49.994Z,75
2017-04-12T10:03:51.863Z,75
2017-04-12T10:04:49.607Z,75
2017-04-12T10:05:49.913Z,70
2017-04-12T10:06:50.023Z,70
2017-04-12T10:07:49.995Z,75
2017-04-12T10:08:49.982Z,75
2017-04-12T10:09:49.627Z,75
2017-04-12T10:10:49.634Z,80
2017-04-12T10:11:50.476Z,80
2017-04-12T10:12:50.030Z,80
2017-04-12T10:13:50.018Z,80
2017-04-12T10:14:51.479Z,85
2017-04-12T10:15:49.412Z,85
2017-04-12T10:16:50.047Z,85
2017-04-12T10:17:49.690Z,80
2017-04-12T10:18:49.739Z,80
2017-04-12T10:19:50.958Z,75
2017-04-12T10:20:49.708Z,75
2017-04-12T10:21:50.567Z,75
2017-04-12T10:22:50.446Z,75
2017-04-12T10:23:50.089Z,75
2017-04-12T10:24:50.107Z,75
2017-04-12T10:25:49.791Z,75
2017-04-12T10:26:50.066Z,75
2017-04-12T10:27:49.755Z,70
2017-04-12T10:28:49.859Z,70
2017-04-12T10:29:50.389Z,65
2017-04-12T10:30:50.196Z,65
2017-04-12T10:31:50.452Z,65
2017-04-12T10:32:49.836Z,65
2017-04-12T10:33:50.208Z,65
2017-04-12T10:34:50.272Z,65
2017-04-12T10:35:50.233Z,65
2017-04-12T10:36:50.184Z,65
2017-04-12T10:37:49.825Z,70
2017-04-12T10:38:50.465Z,70
2017-04-12T10:39:50.519Z,70
2017-04-12T10:40:50.471Z,70
2017-04-12T10:41:50.220Z,70
2017-04-12T10:42:50.529Z,70
2017-04-12T10:43:50.179Z,70
2017-04-12T10:44:50.499Z,65
2017-04-12T10:45:50.552Z,65
2017-04-12T10:46:50.602Z,65
2017-04-12T10:47:49.686Z,60
2017-04-12T10:48:49.644Z,60
2017-04-12T10:49:50.597Z,60
2017-04-12T10:50:50.750Z,65
2017-04-12T10:51:49.924Z,65
2017-04-12T10:52:49.626Z,65
2017-04-12T10:53:50.617Z,65
2017-04-12T10:54:50.048Z,60
2017-04-12T10:55:50.361Z,60
2017-04-12T10:56:50.322Z,60
2017-04-12T10:57:50.606Z,55
2017-04-12T10:58:50.326Z,60
2017-04-12T10:59:50.335Z,60
2017-04-12T11:00:50.332Z,60
2017-04-12T11:01:50.676Z,55
2017-04-12T11:02:50.105Z,55
2017-04-12T11:03:50.575Z,55
2017-04-12T11:04:50.332Z,60
2017-04-12T11:05:50.394Z,60
2017-04-12T11:06:49.824Z,60
2017-04-12T11:07:50.665Z,55
2017-04-12T11:08:50.770Z,50
2017-04-12T11:09:50.212Z,50
2017-04-12T11:10:50.061Z,45
2017-04-12T11:11:49.805Z,45
2017-04-12T11:12:49.865Z,45
2017-04-12T11:13:50.452Z,45
2017-04-12T11:14:50.452Z,50
2017-04-12T11:15:50.457Z,45
2017-04-12T11:16:50.731Z,45
2017-04-12T11:17:49.899Z,40
2017-04-12T11:18:50.428Z,40
2017-04-12T11:19:50.487Z,40
2017-04-12T11:20:51.258Z,40
2017-04-12T11:21:50.865Z,45
2017-04-12T11:22:50.819Z,45
2017-04-12T11:23:50.470Z,45
2017-04-12T11:24:50.267Z,50
2017-04-12T11:25:50.481Z,50
2017-04-12T11:26:50.493Z,45
2017-04-12T11:27:50.496Z,45
2017-04-12T11:28:50.814Z,50
2017-04-12T11:29:50.661Z,55
2017-04-12T11:30:51.427Z,55
2017-04-12T11:31:51.562Z,55
2017-04-12T11:32:50.579Z,60
2017-04-12T11:33:50.223Z,60
2017-04-12T11:34:50.904Z,60
2017-04-12T11:35:50.858Z,60
2017-04-12T11:36:50.553Z,65
2017-04-12T11:37:50.256Z,65
2017-04-12T11:38:50.569Z,65
2017-04-12T11:39:50.945Z,65
2017-04-12T11:40:50.598Z,60
2017-04-12T11:41:50.639Z,60
2017-04-12T11:42:50.653Z,60
2017-04-12T11:43:50.299Z,60
2017-04-12T11:44:50.630Z,50
2017-04-12T11:45:50.310Z,45
2017-04-12T11:46:50.986Z,40
2017-04-12T11:47:50.683Z,35
2017-04-12T11:48:50.999Z,35
2017-04-12T11:49:50.698Z,35
2017-04-12T11:50:50.965Z,30
2017-04-12T11:51:50.666Z,30
2017-04-12T11:52:50.458Z,30
2017-04-12T11:53:50.977Z,30
2017-04-12T11:54:50.683Z,35
2017-04-12T11:55:50.889Z,35
2017-04-12T11:56:50.698Z,35
2017-04-12T11:57:50.394Z,35
2017-04-12T11:58:51.043Z,40
2017-04-12T11:59:50.716Z,40
2017-04-12T12:00:51.137Z,35
2017-04-12T12:01:50.776Z,35
2017-04-12T12:02:50.569Z,35
2017-04-12T12:03:50.796Z,35
2017-04-12T12:04:51.073Z,35
2017-04-12T12:05:51.137Z,30
2017-04-12T12:06:50.817Z,30
2017-04-12T12:07:50.822Z,35
2017-04-12T12:08:51.140Z,35
2017-04-12T12:09:50.836Z,35
2017-04-12T12:10:50.852Z,35
2017-04-12T12:11:51.162Z,35
2017-04-12T12:12:51.119Z,35
2017-04-12T12:13:50.893Z,40
2017-04-12T12:14:50.297Z,35
2017-04-12T12:15:50.880Z,40
2017-04-12T12:16:51.205Z,40
2017-04-12T12:17:50.838Z,40
2017-04-12T12:18:50.852Z,40
2017-04-12T12:19:51.170Z,40
2017-04-12T12:20:50.554Z,40
2017-04-12T12:21:50.929Z,40
2017-04-12T12:22:50.930Z,40
2017-04-12T12:23:50.937Z,35
2017-04-12T12:24:50.948Z,35
2017-04-12T12:25:52.440Z,35
2017-04-12T12:26:50.650Z,40
2017-04-12T12:27:51.277Z,35
2017-04-12T12:28:50.922Z,40
2017-04-12T12:29:50.979Z,40
2017-04-12T12:30:51.664Z,40
2017-04-12T12:31:51.308Z,35
2017-04-12T12:32:52.914Z,35
2017-04-12T12:33:50.748Z,35
2017-04-12T12:34:50.965Z,35
2017-04-12T12:35:50.667Z,35
2017-04-12T12:36:50.451Z,40
2017-04-12T12:37:51.299Z,35
2017-04-12T12:38:51.318Z,35
2017-04-12T12:39:50.691Z,45
2017-04-12T12:40:51.014Z,40
2017-04-12T12:41:51.136Z,45
2017-04-12T12:42:51.384Z,40
2017-04-12T12:43:51.094Z,45
2017-04-12T12:44:50.726Z,45
2017-04-12T12:45:50.733Z,45
2017-04-12T12:46:50.794Z,50
2017-04-12T12:47:50.745Z,50
2017-04-12T12:48:51.377Z,50
2017-04-12T12:49:51.882Z,55
2017-04-12T12:50:51.178Z,55
2017-04-12T12:51:51.150Z,55
2017-04-12T12:52:51.451Z,60
2017-04-12T12:53:51.426Z,60
2017-04-12T12:54:51.469Z,60
2017-04-12T12:55:51.171Z,60
2017-04-12T12:56:51.489Z,60
2017-04-12T12:57:51.547Z,55
2017-04-12T12:58:51.137Z,55
2017-04-12T12:59:53.098Z,50
2017-04-12T13:01:05.534Z,50
2017-04-12T13:01:51.477Z,50
2017-04-12T13:02:51.569Z,50
2017-04-12T13:03:50.914Z,45
2017-04-12T13:04:51.188Z,40
2017-04-12T13:05:51.191Z,40
2017-04-12T13:06:51.293Z,40
2017-04-12T13:07:51.561Z,40
2017-04-12T13:08:51.000Z,35
2017-04-12T13:09:51.678Z,35
2017-04-12T13:10:51.539Z,35
2017-04-12T13:11:51.349Z,40
2017-04-12T13:12:51.287Z,40
2017-04-12T13:13:50.684Z,40
2017-04-12T13:14:51.256Z,40
2017-04-12T13:15:51.697Z,35
2017-04-12T13:16:51.546Z,35
2017-04-12T13:17:50.965Z,40
2017-04-12T13:18:51.593Z,40
2017-04-12T13:19:51.652Z,40
2017-04-12T13:20:51.657Z,40
2017-04-12T13:21:51.350Z,35
2017-04-12T13:22:51.619Z,35
2017-04-12T13:23:51.102Z,35
2017-04-12T13:24:51.346Z,35
2017-04-12T13:25:51.636Z,30
2017-04-12T13:26:51.388Z,30
2017-04-12T13:27:51.653Z,35
2017-04-12T13:28:51.406Z,30
2017-04-12T13:29:51.721Z,25
2017-04-12T13:30:51.368Z,25
2017-04-12T13:31:51.118Z,25
2017-04-12T13:32:51.710Z,25
2017-04-12T13:33:51.744Z,25
2017-04-12T13:34:51.708Z,25
2017-04-12T13:35:51.509Z,30
2017-04-12T13:36:51.147Z,30
2017-04-12T13:37:51.212Z,30
2017-04-12T13:38:51.735Z,30
2017-04-12T13:39:51.786Z,30
2017-04-12T13:40:51.433Z,30
2017-04-12T13:41:51.468Z,35
2017-04-12T13:42:51.808Z,35
2017-04-12T13:43:51.447Z,40
2017-04-12T13:44:51.508Z,40
2017-04-12T13:45:50.854Z,45
2017-04-12T13:46:51.163Z,45
2017-04-12T13:47:51.787Z,45
2017-04-12T13:48:51.894Z,45
2017-04-12T13:49:51.746Z,45
2017-04-12T13:50:51.952Z,45
2017-04-12T13:51:51.873Z,45
2017-04-12T13:52:51.673Z,50
2017-04-12T13:53:51.517Z,50
2017-04-12T13:54:51.560Z,50
2017-04-12T13:55:51.689Z,55
2017-04-12T13:56:51.551Z,55
2017-04-12T13:57:51.601Z,55
2017-04-12T13:58:52.269Z,55
2017-04-12T13:59:51.869Z,55
2017-04-12T14:00:51.882Z,55
2017-04-12T14:01:51.901Z,50
2017-04-12T14:02:51.899Z,50
2017-04-12T14:03:51.330Z,45
2017-04-12T14:04:51.699Z,45
2017-04-12T14:05:51.914Z,40
2017-04-12T14:06:52.031Z,35
2017-04-12T14:07:51.981Z,30
2017-04-12T14:08:51.684Z,35
2017-04-12T14:09:51.682Z,35
2017-04-12T14:10:51.429Z,35
2017-04-12T14:11:51.957Z,35
2017-04-12T14:12:51.713Z,30
2017-04-12T14:13:51.666Z,35
2017-04-12T14:14:52.092Z,30
2017-04-12T14:15:51.419Z,35
2017-04-12T14:16:51.782Z,35
2017-04-12T14:17:52.050Z,30
2017-04-12T14:18:52.068Z,30
2017-04-12T14:19:52.069Z,30
2017-04-12T14:20:51.404Z,25
2017-04-12T14:21:51.720Z,25
2017-04-12T14:22:51.776Z,25
2017-04-12T14:23:51.788Z,25
2017-04-12T14:24:51.744Z,25
2017-04-12T14:25:52.064Z,25
2017-04-12T14:26:51.811Z,25
2017-04-12T14:27:52.136Z,20
2017-04-12T14:28:52.124Z,25
2017-04-12T14:29:52.084Z,25
2017-04-12T14:30:52.161Z,25
2017-04-12T14:31:51.889Z,25
2017-04-12T14:32:51.948Z,25
2017-04-12T14:33:52.170Z,25
2017-04-12T14:34:51.814Z,25
2017-04-12T14:35:51.967Z,20
2017-04-12T14:36:52.140Z,20
2017-04-12T14:37:51.832Z,20
2017-04-12T14:38:51.266Z,20
2017-04-12T14:39:51.583Z,20
2017-04-12T14:40:51.907Z,15
2017-04-12T14:41:53.357Z,15
2017-04-12T14:42:51.551Z,15
2017-04-12T14:43:52.181Z,15
2017-04-12T14:44:51.876Z,15
2017-04-12T14:45:51.940Z,15
2017-04-12T14:46:51.893Z,15
2017-04-12T14:47:51.949Z,15
2017-04-12T14:48:52.268Z,10
2017-04-12T14:49:51.702Z,10
2017-04-12T14:50:52.125Z,10
2017-04-12T14:51:52.245Z,10
2017-04-12T14:52:51.678Z,10
2017-04-12T14:53:52.648Z,10
2017-04-12T14:54:52.419Z,10
2017-04-12T14:55:51.953Z,10
2017-04-12T14:56:51.704Z,10
2017-04-12T14:57:52.328Z,10
2017-04-12T14:58:51.718Z,10
2017-04-12T14:59:52.092Z,10
2017-04-12T15:00:51.799Z,10
2017-04-12T15:01:51.995Z,10
2017-04-12T15:02:51.487Z,10
2017-04-12T15:03:51.446Z,10
2017-04-12T15:04:52.019Z,10
2017-04-12T15:05:52.340Z,10
2017-04-12T15:06:52.135Z,10
2017-04-12T15:07:52.450Z,10
2017-04-12T15:08:51.791Z,10
2017-04-12T15:09:51.795Z,15
2017-04-12T15:10:52.066Z,15
2017-04-12T15:11:52.383Z,15
2017-04-12T15:12:52.180Z,15
2017-04-12T15:13:51.925Z,15
2017-04-12T15:14:52.192Z,15
2017-04-12T15:15:52.093Z,15
2017-04-12T15:16:52.103Z,15
2017-04-12T15:17:52.420Z,15
2017-04-12T15:18:52.167Z,15
2017-04-12T15:19:51.870Z,15
2017-04-12T15:20:52.491Z,20
2017-04-12T15:21:51.881Z,20
2017-04-12T15:22:52.552Z,20
2017-04-12T15:23:52.615Z,20
2017-04-12T15:24:52.473Z,25
2017-04-12T15:25:52.484Z,25
2017-04-12T15:26:52.224Z,25
2017-04-12T15:27:52.179Z,25
2017-04-12T15:28:52.608Z,25
2017-04-12T15:29:52.283Z,20
2017-04-12T15:30:52.524Z,20
2017-04-12T15:31:52.000Z,20
2017-04-12T15:32:52.269Z,20
2017-04-12T15:33:52.276Z,15
2017-04-12T15:34:52.543Z,15
2017-04-12T15:35:52.602Z,15
2017-04-12T15:36:52.615Z,15
2017-04-12T15:37:52.314Z,15
2017-04-12T15:38:52.309Z,15
2017-04-12T15:39:52.623Z,15
2017-04-12T15:40:52.323Z,10
2017-04-12T15:41:52.279Z,10
2017-04-12T15:42:52.644Z,10
2017-04-12T15:43:52.703Z,10
2017-04-12T15:44:51.727Z,10
2017-04-12T15:45:52.623Z,10
2017-04-12T15:46:52.153Z,10
2017-04-12T15:47:52.693Z,10
2017-04-12T15:48:52.383Z,10
2017-04-12T15:49:52.319Z,10
2017-04-12T15:50:52.705Z,10
2017-04-12T15:51:52.348Z,10
2017-04-12T15:52:52.676Z,10
2017-04-12T15:53:52.159Z,10
2017-04-12T15:54:52.777Z,10
2017-04-12T15:55:52.789Z,10
2017-04-12T15:56:52.847Z,10
2017-04-12T15:57:52.706Z,10
2017-04-12T15:58:52.454Z,5
2017-04-12T15:59:53.080Z,5
2017-04-12T16:00:52.734Z,5
2017-04-12T16:01:52.532Z,5
2017-04-12T16:02:52.170Z,5
2017-04-12T16:03:52.752Z,5
2017-04-12T16:04:52.500Z,5
2017-04-12T16:05:52.771Z,5
2017-04-12T16:06:52.559Z,5
2017-04-12T16:07:52.211Z,5
2017-04-12T16:08:52.475Z,5
2017-04-12T16:09:52.483Z,5
2017-04-12T16:10:51.970Z,5
2017-04-12T16:11:52.504Z,5
2017-04-12T16:12:52.518Z,5
2017-04-12T16:13:53.124Z,5
2017-04-12T16:14:52.570Z,5
2017-04-12T16:15:52.840Z,5
2017-04-12T16:16:52.898Z,5
2017-04-12T16:17:52.587Z,5
2017-04-12T16:18:52.549Z,5
2017-04-12T16:19:52.247Z,5
2017-04-12T16:20:52.875Z,5
2017-04-12T16:21:52.884Z,5
2017-04-12T16:22:52.582Z,5
2017-04-12T16:23:52.995Z,5
2017-04-12T16:24:52.650Z,5
2017-04-12T16:25:52.964Z,5
2017-04-12T16:26:52.398Z,5
2017-04-12T16:27:52.928Z,5
2017-04-12T16:28:52.979Z,5
2017-04-12T16:29:52.317Z,5
2017-04-12T16:30:52.945Z,0
2017-04-12T16:31:52.336Z,0
2017-04-12T16:32:53.069Z,0
2017-04-12T16:33:52.403Z,0
2017-04-12T16:34:52.769Z,0
2017-04-12T16:35:52.375Z,0
2017-04-12T16:36:54.638Z,0
2017-04-12T16:37:52.424Z,0
2017-04-12T16:38:53.859Z,5
2017-04-12T16:39:52.707Z,5
2017-04-12T16:40:52.715Z,0
2017-04-12T16:41:53.128Z,0
2017-04-12T16:42:53.113Z,0
2017-04-12T16:43:52.414Z,0
2017-04-12T16:44:52.220Z,0
2017-04-12T16:45:52.743Z,0
2017-04-12T16:46:52.549Z,0
2017-04-12T16:47:53.118Z,0
2017-04-12T16:48:52.807Z,0
2017-04-12T16:49:53.145Z,0
2017-04-12T16:50:52.775Z,0
2017-04-12T16:51:52.539Z,0
2017-04-12T16:52:52.912Z,0
2017-04-12T16:53:52.869Z,0
2017-04-12T16:54:52.655Z,0
2017-04-12T16:55:52.876Z,5
2017-04-12T16:56:52.583Z,5
2017-04-12T16:57:53.194Z,5
2017-04-12T16:58:53.457Z,5
2017-04-12T16:59:52.590Z,5
2017-04-12T17:00:52.762Z,5
2017-04-12T17:01:53.395Z,5
2017-04-12T17:02:53.178Z,5
2017-04-12T17:03:53.011Z,5
2017-04-12T17:04:52.887Z,5
2017-04-12T17:05:53.349Z,5
2017-04-12T17:06:53.311Z,5
2017-04-12T17:07:52.963Z,5
2017-04-12T17:08:53.223Z,5
2017-04-12T17:09:53.622Z,5
2017-04-12T17:10:53.291Z,5
2017-04-12T17:11:52.319Z,5
2017-04-12T17:12:53.358Z,5
2017-04-12T17:13:52.333Z,5
2017-04-12T17:14:53.277Z,5
2017-04-12T17:15:52.701Z,5
2017-04-12T17:16:52.665Z,5
2017-04-12T17:17:52.985Z,0
2017-04-12T17:18:53.365Z,0
2017-04-12T17:19:53.055Z,0
2017-04-12T17:20:53.343Z,0
2017-04-12T17:21:52.716Z,0
2017-04-12T17:22:52.711Z,0
2017-04-12T17:23:52.766Z,0
2017-04-12T17:24:53.402Z,0
2017-04-12T17:25:53.495Z,0
2017-04-12T17:26:53.411Z,0
2017-04-12T17:27:53.226Z,0
2017-04-12T17:28:53.129Z,0
2017-04-12T17:29:53.216Z,0
2017-04-12T17:30:53.237Z,0
2017-04-12T17:31:53.088Z,0
2017-04-12T17:32:53.093Z,0
2017-04-12T17:33:53.863Z,0
2017-04-12T17:34:53.421Z,0
2017-04-12T17:35:53.536Z,0
2017-04-12T17:36:52.824Z,0
2017-04-12T17:37:53.451Z,0
2017-04-12T17:38:53.458Z,0
2017-04-12T17:39:52.948Z,0
2017-04-12T17:40:53.517Z,0
2017-04-12T17:41:53.457Z,0
2017-04-12T17:42:54.643Z,0
2017-04-12T17:43:53.247Z,0
2017-04-12T17:44:53.556Z,0
2017-04-12T17:45:52.880Z,0
2017-04-12T17:46:53.205Z,0
2017-04-12T17:47:53.264Z,0
2017-04-12T17:48:52.965Z,0
2017-04-12T17:49:53.589Z,0
2017-04-12T17:50:52.937Z,0
2017-04-12T17:51:53.603Z,0
2017-04-12T17:52:53.616Z,0
2017-04-12T17:53:53.352Z,0
2017-04-12T17:54:53.632Z,0
2017-04-12T17:55:53.331Z,0
2017-04-12T17:56:52.714Z,0
2017-04-12T17:57:53.289Z,0
2017-04-12T17:58:55.304Z,0
2017-04-12T17:59:53.720Z,0
2017-04-12T18:00:53.365Z,0
2017-04-12T18:01:56.024Z,0
2017-04-12T18:02:53.759Z,0
2017-04-12T18:03:53.650Z,0
2017-04-12T18:04:53.714Z,0
2017-04-12T18:05:53.711Z,0
2017-04-12T18:06:53.417Z,0
2017-04-12T18:07:53.370Z,0
2017-04-12T18:08:53.119Z,0
2017-04-12T18:09:53.999Z,0
2017-04-12T18:10:53.868Z,0
2017-04-12T18:11:53.746Z,0
2017-04-12T18:12:53.772Z,0
2017-04-12T18:13:54.254Z,0
2017-04-12T18:14:53.840Z,0
2017-04-12T18:15:53.436Z,0
2017-04-12T18:16:53.859Z,0
2017-04-12T18:17:53.497Z,0
2017-04-12T18:18:53.768Z,0
2017-04-12T18:19:53.528Z,0
2017-04-12T18:20:53.473Z,0
2017-04-12T18:21:53.790Z,0
2017-04-12T18:22:53.514Z,0
2017-04-12T18:23:53.907Z,0
2017-04-12T18:24:53.829Z,0
2017-04-12T18:25:52.944Z,0
2017-04-12T18:26:53.884Z,0
2017-04-12T18:27:53.888Z,0
2017-04-12T18:28:53.640Z,0
2017-04-12T18:29:53.590Z,0
2017-04-12T18:30:52.985Z,0
2017-04-12T18:31:54.027Z,0
2017-04-12T18:32:53.720Z,0
2017-04-12T18:33:53.594Z,0
2017-04-12T18:34:53.943Z,0
2017-04-12T18:35:53.648Z,0
2017-04-12T18:36:54.650Z,0
2017-04-12T18:37:53.348Z,0
2017-04-12T18:38:53.614Z,0
2017-04-12T18:39:53.055Z,0
2017-04-12T18:40:53.690Z,0
2017-04-12T18:41:53.388Z,0
2017-04-12T18:42:53.645Z,0
2017-04-12T18:43:53.768Z,0
2017-04-12T18:44:53.975Z,0
2017-04-12T18:45:53.988Z,0
2017-04-12T18:46:53.685Z,0
2017-04-12T18:47:54.051Z,0
2017-04-12T18:48:54.110Z,0
2017-04-12T18:49:53.450Z,0
2017-04-12T18:50:53.768Z,0
2017-04-12T18:51:53.771Z,0
2017-04-12T18:52:53.110Z,0
2017-04-12T18:53:53.739Z,0
2017-04-12T18:54:54.107Z,0
2017-04-12T18:55:53.587Z,0
2017-04-12T18:56:53.481Z,0
2017-04-12T18:57:54.130Z,0
2017-04-12T18:58:53.572Z,0
2017-04-12T18:59:53.935Z,0
2017-04-12T19:00:54.161Z,0
2017-04-12T19:01:53.863Z,0
2017-04-12T19:02:53.548Z,0
2017-04-12T19:03:53.872Z,0
2017-04-12T19:04:54.729Z,0
2017-04-12T19:05:53.956Z,0
2017-04-12T19:06:54.208Z,0
2017-04-12T19:07:53.952Z,0
2017-04-12T19:08:54.188Z,0
2017-04-12T19:09:56.624Z,0
2017-04-12T19:10:53.921Z,0
2017-04-12T19:11:53.986Z,0
2017-04-12T19:12:54.200Z,0
2017-04-12T19:13:53.893Z,0
2017-04-12T19:14:54.267Z,0
2017-04-12T19:15:54.011Z,0
2017-04-12T19:16:54.280Z,0
2017-04-12T19:17:53.942Z,0
2017-04-12T19:18:53.932Z,0
2017-04-12T19:19:54.305Z,0
2017-04-12T19:20:54.270Z,0
2017-04-12T19:21:54.375Z,0
2017-04-12T19:22:54.379Z,0
2017-04-12T19:23:54.438Z,0
2017-04-12T19:24:54.847Z,0
2017-04-12T19:25:55.891Z,0
2017-04-12T19:26:54.313Z,0
2017-04-12T19:27:54.054Z,0
2017-04-12T19:28:54.376Z,0
2017-04-12T19:29:54.122Z,0
2017-04-12T19:30:54.397Z,0
2017-04-12T19:31:54.087Z,0
2017-04-12T19:32:54.101Z,0
2017-04-12T19:33:54.075Z,0
2017-04-12T19:34:53.803Z,0
2017-04-12T19:35:54.424Z,0
2017-04-12T19:37:08.955Z,0
2017-04-12T19:37:53.508Z,0
2017-04-12T19:38:54.085Z,0
2017-04-12T19:39:54.446Z,0
2017-04-12T19:40:53.785Z,0
2017-04-12T19:41:54.519Z,0
2017-04-12T19:42:54.157Z,0
2017-04-12T19:43:56.537Z,0
2017-04-12T19:44:54.220Z,0
2017-04-12T19:45:54.224Z,0
2017-04-12T19:46:54.444Z,0
2017-04-12T19:47:54.196Z,0
2017-04-12T19:48:54.514Z,0
2017-04-12T19:49:54.215Z,0
2017-04-12T19:50:54.520Z,0
2017-04-12T19:51:53.910Z,0
2017-04-12T19:52:54.173Z,0
2017-04-12T19:53:53.872Z,0
2017-04-12T19:54:54.256Z,0
2017-04-12T19:55:54.556Z,0
2017-04-12T19:56:53.996Z,0
2017-04-12T19:57:54.516Z,0
2017-04-12T19:58:54.580Z,0
2017-04-12T19:59:54.640Z,0
2017-04-12T20:00:54.530Z,0
2017-04-12T20:01:54.588Z,0
2017-04-12T20:02:54.596Z,0
2017-04-12T20:03:54.294Z,0
2017-04-12T20:04:54.255Z,0
2017-04-12T20:05:54.616Z,0
2017-04-12T20:06:54.626Z,0
2017-04-12T20:07:54.566Z,0
2017-04-12T20:08:54.321Z,0
2017-04-12T20:09:54.598Z,0
2017-04-12T20:10:54.656Z,0
2017-04-12T20:11:54.659Z,0
2017-04-12T20:12:54.661Z,0
2017-04-12T20:13:53.999Z,0
2017-04-12T20:14:54.621Z,0
2017-04-12T20:15:54.317Z,0
2017-04-12T20:16:54.021Z,0
2017-04-12T20:17:54.380Z,0
2017-04-12T20:18:54.711Z,0
2017-04-12T20:19:54.477Z,0
2017-04-12T20:20:53.725Z,0
2017-04-12T20:21:54.364Z,0
2017-04-12T20:22:54.722Z,0
2017-04-12T20:23:54.784Z,0
2017-04-12T20:24:54.687Z,0
2017-04-12T20:25:54.383Z,0
2017-04-12T20:26:54.389Z,0
2017-04-12T20:27:54.443Z,0
2017-04-12T20:28:54.142Z,0
2017-04-12T20:29:54.817Z,0
2017-04-12T20:30:54.729Z,0
2017-04-12T20:31:54.737Z,0
2017-04-12T20:32:54.742Z,0
2017-04-12T20:33:54.937Z,0
2017-04-12T20:34:54.335Z,0
2017-04-12T20:35:54.853Z,0
2017-04-12T20:36:54.457Z,0
2017-04-12T20:37:54.202Z,0
2017-04-12T20:38:54.263Z,0
2017-04-12T20:39:54.233Z,0
2017-04-12T20:40:54.483Z,0
2017-04-12T20:41:54.488Z,0
2017-04-12T20:42:54.860Z,0
2017-04-12T20:43:54.615Z,0
2017-04-12T20:44:54.831Z,0
2017-04-12T20:45:54.256Z,0
2017-04-12T20:46:54.528Z,0
2017-04-12T20:47:54.637Z,0
2017-04-12T20:48:54.705Z,0
2017-04-12T20:49:54.511Z,0
2017-04-12T20:50:54.603Z,0
2017-04-12T20:51:54.256Z,0
2017-04-12T20:52:54.923Z,0
2017-04-12T20:53:54.915Z,0
2017-04-12T20:54:54.267Z,0
2017-04-12T20:55:54.895Z,0
2017-04-12T20:56:54.604Z,0
2017-04-12T20:57:54.646Z,0
2017-04-12T20:58:54.601Z,0
2017-04-12T20:59:54.980Z,0
2017-04-12T21:00:54.625Z,0
2017-04-12T21:01:54.628Z,0
2017-04-12T21:02:54.630Z,0
2017-04-12T21:03:54.942Z,0
2017-04-12T21:04:54.944Z,0
2017-04-12T21:05:56.437Z,0
2017-04-12T21:06:54.645Z,0
2017-04-12T21:07:55.352Z,0
2017-04-12T21:08:54.958Z,0
2017-04-12T21:09:54.654Z,0
2017-04-12T21:10:55.265Z,0
2017-04-12T21:11:54.958Z,0
2017-04-12T21:12:54.656Z,0
2017-04-12T21:13:55.871Z,0
2017-04-12T21:14:54.353Z,0
2017-04-12T21:15:54.977Z,0
2017-04-12T21:16:55.034Z,0
2017-04-12T21:17:54.977Z,0
2017-04-12T21:18:55.765Z,0
2017-04-12T21:19:54.974Z,0
2017-04-12T21:20:54.355Z,0
2017-04-12T21:21:55.440Z,0
2017-04-12T21:22:55.434Z,0
2017-04-12T21:23:54.982Z,0
2017-04-12T21:24:54.662Z,0
2017-04-12T21:25:54.983Z,0
2017-04-12T21:26:54.692Z,0
2017-04-12T21:27:54.053Z,0
2017-04-12T21:28:54.667Z,0
2017-04-12T21:29:54.988Z,0
2017-04-12T21:30:54.728Z,0
2017-04-12T21:31:54.683Z,0
2017-04-12T21:32:54.990Z,0
2017-04-12T21:33:54.991Z,0
2017-04-12T21:34:54.427Z,0
2017-04-12T21:35:54.990Z,0
2017-04-12T21:36:56.245Z,0
2017-04-12T21:37:54.996Z,0
2017-04-12T21:38:55.182Z,0
2017-04-12T21:39:54.999Z,0
2017-04-12T21:40:54.684Z,0
2017-04-12T21:41:54.391Z,0
2017-04-12T21:42:54.689Z,0
2017-04-12T21:43:55.001Z,0
2017-04-12T21:44:54.386Z,0
2017-04-12T21:45:55.062Z,0
2017-04-12T21:46:55.013Z,0
2017-04-12T21:47:54.986Z,0
2017-04-12T21:48:55.006Z,0
2017-04-12T21:49:54.703Z,0
2017-04-12T21:50:54.699Z,0
2017-04-12T21:51:55.012Z,0
2017-04-12T21:52:54.441Z,0
2017-04-12T21:53:54.438Z,0
2017-04-12T21:54:54.399Z,0
2017-04-12T21:55:54.710Z,0
2017-04-12T21:56:54.707Z,0
2017-04-12T21:57:55.076Z,0
2017-04-12T21:58:54.397Z,0
2017-04-12T21:59:55.028Z,0
2017-04-12T22:00:54.909Z,0
2017-04-12T22:01:55.028Z,0
2017-04-12T22:02:55.528Z,0
2017-04-12T22:03:55.023Z,0
2017-04-12T22:04:55.036Z,0
2017-04-12T22:05:55.131Z,0
2017-04-12T22:06:55.033Z,0
2017-04-12T22:07:54.451Z,0
2017-04-12T22:08:54.733Z,0
2017-04-12T22:09:55.053Z,0
2017-04-12T22:10:54.725Z,0
2017-04-12T22:11:55.039Z,0
2017-04-12T22:12:55.049Z,0
2017-04-12T22:13:54.728Z,0
2017-04-12T22:14:56.341Z,0
2017-04-12T22:15:55.093Z,0
2017-04-12T22:16:54.735Z,0
2017-04-12T22:17:55.085Z,0
2017-04-12T22:18:54.735Z,0
2017-04-12T22:19:54.733Z,0
2017-04-12T22:20:55.097Z,0
2017-04-12T22:21:54.427Z,0
2017-04-12T22:22:54.743Z,0
2017-04-12T22:23:54.740Z,0
2017-04-12T22:24:54.741Z,0
2017-04-12T22:25:55.107Z,0
2017-04-12T22:26:54.744Z,0
2017-04-12T22:27:54.746Z,0
2017-04-12T22:28:55.113Z,0
2017-04-12T22:29:55.116Z,0
2017-04-12T22:30:54.765Z,0
2017-04-12T22:31:54.756Z,0
2017-04-12T22:32:56.179Z,0
2017-04-12T22:33:55.304Z,0
2017-04-12T22:34:55.385Z,0
2017-04-12T22:35:54.469Z,0
2017-04-12T22:36:56.592Z,0
2017-04-12T22:37:55.101Z,0
2017-04-12T22:38:55.105Z,0
2017-04-12T22:39:54.795Z,0
2017-04-12T22:40:54.485Z,0
2017-04-12T22:41:55.117Z,0
2017-04-12T22:42:54.806Z,0
2017-04-12T22:43:55.130Z,0
2017-04-12T22:44:54.816Z,0
2017-04-12T22:45:55.183Z,0
2017-04-12T22:46:55.187Z,0
2017-04-12T22:47:55.206Z,0
2017-04-12T22:48:55.146Z,0
2017-04-12T22:49:55.595Z,0
2017-04-12T22:50:54.533Z,0
2017-04-12T22:51:54.849Z,0
2017-04-12T22:52:54.542Z,0
2017-04-12T22:53:54.858Z,0
2017-04-12T22:54:55.171Z,0
2017-04-12T22:55:55.200Z,0
2017-04-12T22:56:55.180Z,0
2017-04-12T22:57:55.186Z,0
2017-04-12T22:58:54.875Z,0
2017-04-12T22:59:55.290Z,0
2017-04-12T23:00:54.891Z,0
2017-04-12T23:01:54.582Z,0
2017-04-12T23:02:55.261Z,0
2017-04-12T23:03:54.948Z,0
2017-04-12T23:04:55.219Z,0
2017-04-12T23:05:55.221Z,0
2017-04-12T23:06:54.918Z,0
2017-04-12T23:07:56.118Z,0
2017-04-12T23:08:54.922Z,0
2017-04-12T23:09:55.678Z,0
2017-04-12T23:10:54.933Z,0
2017-04-12T23:11:54.939Z,0
2017-04-12T23:12:54.671Z,0
2017-04-12T23:13:55.254Z,0
2017-04-12T23:14:54.956Z,0
2017-04-12T23:15:54.961Z,0
2017-04-12T23:16:56.275Z,0
2017-04-12T23:17:56.518Z,0
2017-04-12T23:18:55.287Z,0
2017-04-12T23:19:54.972Z,0
2017-04-12T23:20:54.978Z,0
2017-04-12T23:21:54.674Z,0
2017-04-12T23:22:54.726Z,0
2017-04-12T23:23:54.684Z,0
2017-04-12T23:24:54.685Z,0
2017-04-12T23:25:55.311Z,0
2017-04-12T23:26:55.315Z,0
2017-04-12T23:27:55.322Z,0
2017-04-12T23:28:54.751Z,0
2017-04-12T23:29:55.912Z,0
2017-04-12T23:30:54.719Z,0
2017-04-12T23:31:55.024Z,0
2017-04-12T23:32:55.340Z,0
2017-04-12T23:33:55.087Z,0
2017-04-12T23:34:55.088Z,0
2017-04-12T23:35:55.090Z,0
2017-04-12T23:36:55.470Z,0
2017-04-12T23:37:55.105Z,0
2017-04-12T23:42:22.663Z,0
2017-04-12T23:42:44.419Z,0
2017-04-12T23:43:44.682Z,0
2017-04-12T23:44:44.378Z,0
2017-04-12T23:45:44.643Z,0
2017-04-12T23:46:44.644Z,0
2017-04-12T23:47:44.699Z,0
2017-04-12T23:48:44.344Z,0
2017-04-12T23:49:44.659Z,0
2017-04-12T23:50:44.671Z,0
2017-04-12T23:51:44.352Z,0
2017-04-12T23:52:44.734Z,0
2017-04-12T23:53:44.383Z,0
2017-04-12T23:54:44.938Z,0
2017-04-12T23:55:44.369Z,0
2017-04-12T23:56:44.795Z,0
2017-04-12T23:57:44.385Z,0
2017-04-12T23:58:44.694Z,0
2017-04-12T23:59:44.386Z,0
